createdAt,value
2018-11-02T00:00:40.203Z,100636.78
2018-11-02T00:03:09.784Z,100641.38
2018-11-02T00:05:38.890Z,100647.03
2018-11-02T00:08:13.311Z,100646.63
2018-11-02T00:10:42.367Z,100647.08
2018-11-02T00:13:11.636Z,100658.19
2018-11-02T00:15:40.578Z,100649.37
2018-11-02T00:18:09.487Z,100650.68
2018-11-02T00:20:38.694Z,100648.34
2018-11-02T00:23:07.645Z,100652.98
2018-11-02T00:25:36.518Z,100649.90
2018-11-02T00:28:06.784Z,100659.66
2018-11-02T00:30:35.910Z,100679.83
2018-11-02T00:33:05.211Z,100674.04
2018-11-02T00:35:34.550Z,100690.18
2018-11-02T00:38:04.808Z,100688.70
2018-11-02T00:40:33.868Z,100683.45
2018-11-02T00:43:02.838Z,100689.52
2018-11-02T00:45:31.836Z,100688.29
2018-11-02T00:48:01.195Z,100693.98
2018-11-02T00:50:30.166Z,100695.55
2018-11-02T00:52:59.107Z,100692.75
2018-11-02T00:55:28.465Z,100697.34
2018-11-02T00:57:57.556Z,100687.08
2018-11-02T01:00:30.180Z,100699.86
2018-11-02T01:02:59.504Z,100705.63
2018-11-02T01:05:28.495Z,100709.34
2018-11-02T01:07:57.413Z,100713.28
2018-11-02T01:10:26.619Z,100722.60
2018-11-02T01:12:55.658Z,100715.53
2018-11-02T01:15:24.594Z,100716.69
2018-11-02T01:17:53.788Z,100712.13
2018-11-02T01:20:22.714Z,100718.72
2018-11-02T01:22:51.684Z,100718.98
2018-11-02T01:25:20.919Z,100721.56
2018-11-02T01:27:49.794Z,100723.70
2018-11-02T01:30:18.763Z,100728.30
2018-11-02T01:32:48.071Z,100729.20
2018-11-02T01:35:16.940Z,100726.39
2018-11-02T01:37:45.865Z,100731.82
2018-11-02T01:40:15.147Z,100733.39
2018-11-02T01:42:44.087Z,100729.98
2018-11-02T01:45:13.011Z,100730.92
2018-11-02T01:47:42.194Z,100733.50
2018-11-02T01:50:11.104Z,100726.17
2018-11-02T01:52:40.061Z,100730.62
2018-11-02T01:55:16.779Z,100727.52
2018-11-02T01:57:45.626Z,100727.25
2018-11-02T02:00:14.774Z,100727.52
2018-11-02T02:02:43.839Z,100718.16
2018-11-02T02:05:12.832Z,100710.30
2018-11-02T02:07:42.074Z,100709.84
2018-11-02T02:10:11.022Z,100711.49
2018-11-02T02:12:40.011Z,100711.08
2018-11-02T02:15:10.264Z,100716.39
2018-11-02T02:17:39.311Z,100720.77
2018-11-02T02:20:08.784Z,100723.47
2018-11-02T02:22:38.069Z,100716.84
2018-11-02T02:25:08.459Z,100724.37
2018-11-02T02:27:37.834Z,100728.70
2018-11-02T02:30:11.209Z,100732.30
2018-11-02T02:32:40.240Z,100743.56
2018-11-02T02:35:09.965Z,100745.47
2018-11-02T02:37:39.858Z,100747.16
2018-11-02T02:40:10.702Z,100749.70
2018-11-02T02:42:40.303Z,100756.40
2018-11-02T02:45:10.159Z,100758.66
2018-11-02T02:47:39.591Z,100761.91
2018-11-02T02:50:11.049Z,100770.66
2018-11-02T02:52:39.985Z,100778.52
2018-11-02T02:55:09.572Z,100783.31
2018-11-02T02:57:39.210Z,100782.18
2018-11-02T03:00:10.540Z,100782.94
2018-11-02T03:02:39.617Z,100785.07
2018-11-02T03:05:09.141Z,100783.45
2018-11-02T03:07:38.159Z,100784.80
2018-11-02T03:10:07.487Z,100792.73
2018-11-02T03:12:36.856Z,100790.18
2018-11-02T03:15:06.161Z,100794.22
2018-11-02T03:17:35.310Z,100794.02
2018-11-02T03:20:06.755Z,100799.32
2018-11-02T03:22:35.753Z,100802.05
2018-11-02T03:25:04.705Z,100811.14
2018-11-02T03:27:33.991Z,100816.75
2018-11-02T03:30:05.595Z,100820.52
2018-11-02T03:32:34.513Z,100829.89
2018-11-02T03:35:03.893Z,100832.05
2018-11-02T03:37:32.802Z,100837.81
2018-11-02T03:40:03.468Z,100839.56
2018-11-02T03:42:32.491Z,100838.61
2018-11-02T03:45:01.378Z,100845.59
2018-11-02T03:47:30.524Z,100853.70
2018-11-02T03:49:59.495Z,100853.28
2018-11-02T03:52:28.474Z,100867.93
2018-11-02T03:54:59.416Z,100870.07
2018-11-02T03:57:28.340Z,100869.17
2018-11-02T03:59:57.433Z,100872.07
2018-11-02T04:02:26.643Z,100870.63
2018-11-02T04:04:55.636Z,100871.14
2018-11-02T04:07:24.639Z,100873.66
2018-11-02T04:09:53.866Z,100877.69
2018-11-02T04:12:22.929Z,100877.66
2018-11-02T04:14:51.873Z,100870.97
2018-11-02T04:17:27.286Z,100869.28
2018-11-02T04:19:56.249Z,100870.08
2018-11-02T04:22:25.094Z,100867.83
2018-11-02T04:24:55.565Z,100873.31
2018-11-02T04:27:24.423Z,100870.83
2018-11-02T04:29:53.647Z,100868.87
2018-11-02T04:32:22.556Z,100872.07
2018-11-02T04:34:51.381Z,100874.00
2018-11-02T04:37:20.622Z,100879.30
2018-11-02T04:39:49.628Z,100878.41
2018-11-02T04:42:22.369Z,100885.75
2018-11-02T04:44:51.603Z,100888.92
2018-11-02T04:47:20.522Z,100900.42
2018-11-02T04:49:49.429Z,100902.14
2018-11-02T04:52:18.604Z,100904.41
2018-11-02T04:54:47.672Z,100912.48
2018-11-02T04:57:16.600Z,100915.97
2018-11-02T04:59:45.955Z,100916.10
2018-11-02T05:02:14.972Z,100913.06
2018-11-02T05:04:44.008Z,100916.70
2018-11-02T05:07:12.917Z,100919.83
2018-11-02T05:09:41.867Z,100924.97
2018-11-02T05:12:11.080Z,100929.41
2018-11-02T05:14:40.014Z,100935.77
2018-11-02T05:17:10.759Z,100934.31
2018-11-02T05:19:40.142Z,100935.14
2018-11-02T05:22:09.403Z,100940.95
2018-11-02T05:24:38.370Z,100950.19
2018-11-02T05:27:07.594Z,100954.97
2018-11-02T05:29:36.545Z,100964.45
2018-11-02T05:32:07.017Z,100959.89
2018-11-02T05:34:36.249Z,100962.22
2018-11-02T05:37:05.183Z,100955.73
2018-11-02T05:39:34.173Z,100957.78
2018-11-02T05:42:05.252Z,100962.79
2018-11-02T05:44:34.274Z,100964.55
2018-11-02T05:47:03.424Z,100968.53
2018-11-02T05:49:32.386Z,100976.45
2018-11-02T05:52:01.553Z,100976.45
2018-11-02T05:54:31.500Z,100974.73
2018-11-02T05:57:00.630Z,100976.99
2018-11-02T05:59:29.551Z,100974.38
2018-11-02T06:01:58.897Z,100978.20
2018-11-02T06:04:29.364Z,100985.17
2018-11-02T06:06:58.327Z,100981.94
2018-11-02T06:09:27.706Z,100983.75
2018-11-02T06:11:56.656Z,100992.98
2018-11-02T06:14:25.578Z,100990.00
2018-11-02T06:16:54.869Z,100999.28
2018-11-02T06:19:23.786Z,100992.63
2018-11-02T06:21:52.965Z,100998.78
2018-11-02T06:24:22.241Z,101008.00
2018-11-02T06:26:51.147Z,101014.13
2018-11-02T06:29:20.117Z,101004.16
2018-11-02T06:31:49.015Z,101011.59
2018-11-02T06:34:17.923Z,101017.39
2018-11-02T06:36:47.258Z,101020.45
2018-11-02T06:39:16.375Z,101029.17
2018-11-02T06:41:45.277Z,101037.44
2018-11-02T06:44:14.754Z,101046.18
2018-11-02T06:50:15.247Z,101053.73
2018-11-02T06:52:44.129Z,101058.52
2018-11-02T06:55:13.090Z,101067.17
2018-11-02T06:57:42.422Z,101075.02
2018-11-02T07:00:13.272Z,101080.62
2018-11-02T07:02:42.268Z,101076.19
2018-11-02T07:05:12.595Z,101089.66
2018-11-02T07:07:41.705Z,101086.59
2018-11-02T07:10:10.771Z,101097.06
2018-11-02T07:12:40.082Z,101095.41
2018-11-02T07:15:09.222Z,101102.77
2018-11-02T07:17:38.207Z,101113.11
2018-11-02T07:20:08.635Z,101114.49
2018-11-02T07:22:37.640Z,101117.19
2018-11-02T07:25:07.189Z,101124.39
2018-11-02T07:27:36.068Z,101119.37
2018-11-02T07:30:07.754Z,101115.16
2018-11-02T07:32:37.143Z,101117.21
2018-11-02T07:35:06.576Z,101122.43
2018-11-02T07:37:35.632Z,101126.32
2018-11-02T07:40:06.440Z,101132.16
2018-11-02T07:42:35.371Z,101129.61
2018-11-02T07:45:08.137Z,101132.59
2018-11-02T07:47:37.434Z,101142.30
2018-11-02T07:50:11.210Z,101134.12
2018-11-02T07:52:40.188Z,101140.37
2018-11-02T07:55:12.280Z,101144.84
2018-11-02T07:57:41.259Z,101147.43
2018-11-02T08:00:12.762Z,101144.69
2018-11-02T08:02:43.902Z,101146.33
2018-11-02T08:05:13.516Z,101155.62
2018-11-02T08:07:42.576Z,101155.16
2018-11-02T08:10:11.570Z,101156.88
2018-11-02T08:12:47.253Z,101153.75
2018-11-02T08:15:16.601Z,101149.01
2018-11-02T08:17:45.562Z,101153.88
2018-11-02T08:20:14.897Z,101157.23
2018-11-02T08:22:45.630Z,101151.50
2018-11-02T08:25:17.986Z,101153.97
2018-11-02T08:30:21.742Z,101151.80
2018-11-02T08:32:51.280Z,101157.58
2018-11-02T08:35:20.198Z,101159.78
2018-11-02T08:40:28.636Z,101163.11
2018-11-02T08:42:58.839Z,101163.59
2018-11-02T08:45:27.982Z,101158.95
2018-11-02T08:50:37.120Z,101166.53
2018-11-02T08:53:06.635Z,101175.77
2018-11-02T08:55:35.514Z,101170.54
2018-11-02T08:58:13.827Z,101166.66
2018-11-02T09:00:43.851Z,101175.81
2018-11-02T09:03:12.769Z,101173.05
2018-11-02T09:05:42.136Z,101177.38
2018-11-02T09:08:11.127Z,101171.83
2018-11-02T09:10:41.904Z,101167.48
2018-11-02T09:13:11.211Z,101171.03
2018-11-02T09:15:40.138Z,101165.53
2018-11-02T09:18:09.144Z,101164.79
2018-11-02T09:20:38.248Z,101167.16
2018-11-02T09:23:07.374Z,101155.30
2018-11-02T09:25:36.739Z,101156.22
2018-11-02T09:28:07.476Z,101158.83
2018-11-02T09:30:36.476Z,101151.51
2018-11-02T09:33:06.737Z,101161.02
2018-11-02T09:35:35.641Z,101157.97
2018-11-02T09:38:07.637Z,101161.75
2018-11-02T09:40:37.036Z,101159.91
2018-11-02T09:43:07.181Z,101155.59
2018-11-02T09:45:36.233Z,101164.44
2018-11-02T09:48:06.491Z,101155.81
2018-11-02T09:50:40.396Z,101161.80
2018-11-02T09:53:10.413Z,101160.09
2018-11-02T09:55:39.439Z,101154.91
2018-11-02T09:58:08.477Z,101165.03
2018-11-02T10:00:37.737Z,101157.73
2018-11-02T10:03:06.727Z,101163.23
2018-11-02T10:05:35.692Z,101165.83
2018-11-02T10:08:06.210Z,101167.23
2018-11-02T10:10:35.792Z,101169.85
2018-11-02T10:13:05.548Z,101176.47
2018-11-02T10:15:35.415Z,101190.02
2018-11-02T10:18:06.308Z,101176.61
2018-11-02T10:20:35.330Z,101187.03
2018-11-02T10:23:04.725Z,101171.94
2018-11-02T10:25:33.884Z,101169.94
2018-11-02T10:28:03.690Z,101168.41
2018-11-02T10:30:32.938Z,101179.22
2018-11-02T10:33:01.910Z,101184.09
2018-11-02T10:35:31.424Z,101182.34
2018-11-02T10:38:01.593Z,101167.80
2018-11-02T10:40:32.412Z,101176.50
2018-11-02T10:43:05.042Z,101174.41
2018-11-02T10:45:37.366Z,101180.84
2018-11-02T10:48:07.671Z,101181.36
2018-11-02T10:50:37.306Z,101177.06
2018-11-02T10:53:06.580Z,101176.15
2018-11-02T10:55:35.746Z,101175.94
2018-11-02T10:58:07.461Z,101175.39
2018-11-02T11:00:41.630Z,101179.05
2018-11-02T11:03:10.692Z,101172.55
2018-11-02T11:05:40.058Z,101172.53
2018-11-02T11:08:09.158Z,101170.68
2018-11-02T11:10:38.575Z,101172.73
2018-11-02T11:13:08.522Z,101174.33
2018-11-02T11:15:42.454Z,101175.67
2018-11-02T11:18:12.303Z,101177.41
2018-11-02T11:20:41.876Z,101178.50
2018-11-02T11:23:11.034Z,101175.91
2018-11-02T11:25:46.041Z,101167.05
2018-11-02T11:28:15.255Z,101158.39
2018-11-02T11:30:44.376Z,101161.28
2018-11-02T11:33:13.775Z,101146.80
2018-11-02T11:35:45.365Z,101155.67
2018-11-02T11:38:14.343Z,101153.92
2018-11-02T11:40:44.356Z,101153.38
2018-11-02T11:43:13.410Z,101157.69
2018-11-02T11:45:43.363Z,101171.65
2018-11-02T11:48:13.147Z,101174.58
2018-11-02T11:50:42.056Z,101180.11
2018-11-02T11:53:12.453Z,101177.52
2018-11-02T11:55:41.544Z,101179.44
2018-11-02T11:59:41.195Z,101172.10
2018-11-02T12:02:10.189Z,101165.18
2018-11-02T12:04:39.711Z,101158.36
2018-11-02T12:07:09.208Z,101172.97
2018-11-02T12:09:38.139Z,101177.34
2018-11-02T12:12:07.008Z,101181.36
2018-11-02T12:14:36.307Z,101180.65
2018-11-02T12:17:11.238Z,101183.30
2018-11-02T12:19:40.151Z,101175.86
2018-11-02T12:22:09.305Z,101176.38
2018-11-02T12:24:38.280Z,101173.75
2018-11-02T12:27:07.266Z,101162.94
2018-11-02T12:29:36.619Z,101162.13
2018-11-02T12:32:06.815Z,101173.54
2018-11-02T12:34:35.894Z,101167.91
2018-11-02T12:37:05.065Z,101175.46
2018-11-02T12:39:34.822Z,101184.22
2018-11-02T12:42:05.010Z,101186.66
2018-11-02T12:44:33.917Z,101175.90
2018-11-02T12:47:13.642Z,101192.31
2018-11-02T12:49:43.495Z,101187.23
2018-11-02T12:52:12.230Z,101183.81
2018-11-02T12:54:41.221Z,101189.31
2018-11-02T12:57:10.700Z,101191.75
2018-11-02T12:59:39.730Z,101202.02
2018-11-02T13:02:08.973Z,101207.52
2018-11-02T13:04:38.339Z,101207.95
2018-11-02T13:07:07.521Z,101207.31
2018-11-02T13:09:36.614Z,101208.40
2018-11-02T13:12:07.568Z,101207.13
2018-11-02T13:14:36.510Z,101214.31
2018-11-02T13:17:05.632Z,101216.34
2018-11-02T13:19:34.592Z,101216.77
2018-11-02T13:22:04.662Z,101214.84
2018-11-02T13:24:33.963Z,101219.39
2018-11-02T13:27:04.110Z,101214.40
2018-11-02T13:29:33.174Z,101208.34
2018-11-02T13:32:04.311Z,101209.77
2018-11-02T13:34:34.036Z,101208.02
2018-11-02T13:37:04.210Z,101215.97
2018-11-02T13:39:34.105Z,101220.70
2018-11-02T13:42:06.032Z,101212.98
2018-11-02T13:44:36.616Z,101210.25
2018-11-02T13:47:05.871Z,101206.89
2018-11-02T13:49:34.987Z,101215.28
2018-11-02T13:52:05.267Z,101213.26
2018-11-02T13:54:34.515Z,101215.67
2018-11-02T13:57:03.672Z,101232.73
2018-11-02T13:59:32.672Z,101230.37
2018-11-02T14:02:03.614Z,101227.05
2018-11-02T14:04:32.993Z,101230.58
2018-11-02T14:07:02.417Z,101224.78
2018-11-02T14:09:31.630Z,101222.70
2018-11-02T14:12:00.665Z,101219.72
2018-11-02T14:14:30.061Z,101212.08
2018-11-02T14:16:59.040Z,101215.31
2018-11-02T14:19:28.073Z,101213.02
2018-11-02T14:21:57.311Z,101230.90
2018-11-02T14:24:26.264Z,101242.80
2018-11-02T14:29:32.430Z,101240.02
2018-11-02T14:32:03.438Z,101242.28
2018-11-02T14:34:37.580Z,101244.19
2018-11-02T14:37:12.106Z,101254.24
2018-11-02T14:39:42.279Z,101250.48
2018-11-02T14:42:11.403Z,101248.39
2018-11-02T14:44:40.975Z,101247.92
2018-11-02T14:47:12.735Z,101252.55
2018-11-02T14:49:46.513Z,101261.55
2018-11-02T14:52:16.928Z,101265.62
2018-11-02T14:54:51.489Z,101263.26
2018-11-02T14:57:20.695Z,101259.85
2018-11-02T14:59:50.077Z,101265.22
2018-11-02T15:02:19.045Z,101274.98
2018-11-02T15:04:48.462Z,101267.31
2018-11-02T15:07:18.026Z,101270.62
2018-11-02T15:09:50.170Z,101268.24
2018-11-02T15:12:19.837Z,101271.94
2018-11-02T15:14:49.682Z,101279.80
2018-11-02T15:17:21.199Z,101289.70
2018-11-02T15:19:50.254Z,101294.34
2018-11-02T15:22:28.187Z,101295.20
2018-11-02T15:25:00.154Z,101300.20
2018-11-02T15:27:31.971Z,101301.31
2018-11-02T15:30:02.423Z,101300.86
2018-11-02T15:32:37.776Z,101308.09
2018-11-02T15:35:08.737Z,101313.28
2018-11-02T15:37:38.734Z,101316.09
2018-11-02T15:40:08.839Z,101315.69
2018-11-02T15:42:40.884Z,101317.56
2018-11-02T15:45:12.980Z,101317.27
2018-11-02T15:47:42.983Z,101317.00
2018-11-02T15:50:12.466Z,101318.64
2018-11-02T15:52:42.848Z,101328.39
2018-11-02T15:55:13.244Z,101325.14
2018-11-02T15:57:42.694Z,101325.81
2018-11-02T16:00:20.612Z,101324.98
2018-11-02T16:02:51.940Z,101327.23
2018-11-02T16:05:31.428Z,101337.14
2018-11-02T16:08:04.222Z,101353.11
2018-11-02T16:10:36.585Z,101354.89
2018-11-02T16:13:08.917Z,101362.98
2018-11-02T16:15:39.024Z,101354.16
2018-11-02T16:18:08.421Z,101364.65
2018-11-02T16:20:46.020Z,101368.62
2018-11-02T16:23:16.682Z,101374.55
2018-11-02T16:25:49.832Z,101375.48
2018-11-02T16:28:21.848Z,101384.83
2018-11-02T16:30:51.959Z,101389.91
2018-11-02T16:33:24.344Z,101394.79
2018-11-02T16:35:53.531Z,101392.91
2018-11-02T16:38:27.727Z,101400.57
2018-11-02T16:41:10.385Z,101396.61
2018-11-02T16:43:40.133Z,101402.05
2018-11-02T16:46:09.351Z,101409.06
2018-11-02T16:48:38.315Z,101408.20
2018-11-02T16:51:07.209Z,101425.62
2018-11-02T16:53:36.070Z,101419.56
2018-11-02T16:56:06.391Z,101434.88
2018-11-02T16:58:42.326Z,101436.11
2018-11-02T17:01:12.383Z,101446.47
2018-11-02T17:03:41.206Z,101453.63
2018-11-02T17:06:10.442Z,101454.13
2018-11-02T17:08:39.640Z,101452.31
2018-11-02T17:11:08.602Z,101455.59
2018-11-02T17:13:38.578Z,101453.96
2018-11-02T17:18:41.859Z,101478.99
2018-11-02T17:21:10.907Z,101476.03
2018-11-02T17:23:40.290Z,101476.09
2018-11-02T17:26:09.255Z,101480.09
2018-11-02T17:28:43.706Z,101478.13
2018-11-02T17:31:12.958Z,101481.69
2018-11-02T17:33:42.154Z,101485.11
2018-11-02T17:36:11.200Z,101489.70
2018-11-02T17:38:40.397Z,101491.66
2018-11-02T17:41:09.277Z,101494.30
2018-11-02T17:43:52.770Z,101491.42
2018-11-02T17:46:21.614Z,101503.45
2018-11-02T17:48:50.729Z,101503.63
2018-11-02T17:51:19.940Z,101507.81
2018-11-02T17:53:48.831Z,101511.91
2018-11-02T17:56:17.876Z,101511.30
2018-11-02T17:58:47.162Z,101511.55
2018-11-02T18:01:16.273Z,101519.28
2018-11-02T18:03:45.356Z,101522.77
2018-11-02T18:06:15.346Z,101515.23
2018-11-02T18:08:44.430Z,101521.67
2018-11-02T18:11:13.392Z,101524.20
2018-11-02T18:13:42.856Z,101535.39
2018-11-02T18:16:12.173Z,101542.28
2018-11-02T18:18:41.948Z,101539.89
2018-11-02T18:21:12.346Z,101541.42
2018-11-02T18:23:42.195Z,101547.04
2018-11-02T18:26:11.974Z,101550.50
2018-11-02T18:28:41.761Z,101545.92
2018-11-02T18:31:11.255Z,101551.33
2018-11-02T18:33:40.847Z,101551.16
2018-11-02T18:36:10.209Z,101558.53
2018-11-02T18:38:39.724Z,101554.04
2018-11-02T18:41:09.403Z,101566.94
2018-11-02T18:43:39.945Z,101571.95
2018-11-02T18:46:09.272Z,101573.84
2018-11-02T18:48:40.292Z,101576.42
2018-11-02T18:51:09.692Z,101574.59
2018-11-02T18:53:39.034Z,101579.08
2018-11-02T18:56:08.798Z,101579.23
2018-11-02T18:58:38.205Z,101586.02
2018-11-02T19:01:07.833Z,101588.42
2018-11-02T19:03:37.898Z,101586.66
2018-11-02T19:06:07.524Z,101589.81
2018-11-02T19:08:37.006Z,101598.70
2018-11-02T19:11:06.872Z,101604.05
2018-11-02T19:13:36.439Z,101607.46
2018-11-02T19:16:08.224Z,101605.80
2018-11-02T19:18:38.131Z,101616.34
2018-11-02T19:21:07.745Z,101622.25
2018-11-02T19:23:37.547Z,101614.94
2018-11-02T19:26:27.888Z,101618.02
2018-11-02T19:29:00.864Z,101619.00
2018-11-02T19:31:30.597Z,101628.17
2018-11-02T19:34:00.422Z,101631.89
2018-11-02T19:36:30.298Z,101646.11
2018-11-02T19:38:59.661Z,101642.54
2018-11-02T19:41:29.319Z,101646.80
2018-11-02T19:43:59.072Z,101658.94
2018-11-02T19:46:28.796Z,101676.12
2018-11-02T19:48:58.421Z,101674.18
2018-11-02T19:51:28.615Z,101666.41
2018-11-02T19:53:58.157Z,101675.56
2018-11-02T19:56:27.617Z,101683.08
2018-11-02T19:58:57.241Z,101687.00
2018-11-02T20:01:26.404Z,101683.81
2018-11-02T20:04:02.496Z,101690.91
2018-11-02T20:06:32.388Z,101693.09
2018-11-02T20:09:01.778Z,101691.37
2018-11-02T20:11:31.140Z,101698.81
2018-11-02T20:14:00.957Z,101700.12
2018-11-02T20:16:30.746Z,101704.12
2018-11-02T20:19:00.241Z,101710.80
2018-11-02T20:21:29.591Z,101717.83
2018-11-02T20:23:59.041Z,101725.00
2018-11-02T20:26:28.783Z,101717.55
2018-11-02T20:28:58.294Z,101731.06
2018-11-02T20:31:27.894Z,101729.62
2018-11-02T20:36:34.962Z,101734.08
2018-11-02T20:39:05.017Z,101734.67
2018-11-02T20:41:34.558Z,101737.72
2018-11-02T20:44:05.827Z,101736.44
2018-11-02T20:46:36.219Z,101728.77
2018-11-02T20:49:05.532Z,101724.98
2018-11-02T20:51:35.007Z,101724.95
2018-11-02T20:54:05.853Z,101730.66
2018-11-02T20:56:35.578Z,101724.25
2018-11-02T20:59:04.995Z,101728.61
2018-11-02T21:01:34.495Z,101730.95
2018-11-02T21:04:08.161Z,101724.83
2018-11-02T21:06:37.431Z,101730.77
2018-11-02T21:09:10.142Z,101733.50
2018-11-02T21:11:38.931Z,101737.57
2018-11-02T21:14:07.954Z,101735.03
2018-11-02T21:16:37.312Z,101728.87
2018-11-02T21:19:06.612Z,101731.89
2018-11-02T21:21:35.674Z,101730.44
2018-11-02T21:24:05.925Z,101741.19
2018-11-02T21:26:34.966Z,101740.36
2018-11-02T21:29:10.534Z,101740.80
2018-11-02T21:31:39.534Z,101744.81
2018-11-02T21:34:08.479Z,101747.34
2018-11-02T21:36:37.709Z,101745.58
2018-11-02T21:39:10.477Z,101750.98
2018-11-02T21:41:39.530Z,101752.45
2018-11-02T21:44:08.930Z,101753.59
2018-11-02T21:46:37.905Z,101751.56
2018-11-02T21:49:06.869Z,101750.25
2018-11-02T21:51:36.123Z,101752.85
2018-11-02T21:54:06.142Z,101749.35
2018-11-02T21:56:41.249Z,101747.17
2018-11-02T21:59:10.593Z,101747.62
2018-11-02T22:01:39.746Z,101754.16
2018-11-02T22:04:08.895Z,101753.17
2018-11-02T22:06:38.180Z,101754.46
2018-11-02T22:09:08.801Z,101753.08
2018-11-02T22:11:37.812Z,101755.30
2018-11-02T22:14:07.192Z,101760.61
2018-11-02T22:16:37.102Z,101764.11
2018-11-02T22:19:11.362Z,101762.37
2018-11-02T22:21:40.338Z,101760.17
2018-11-02T22:24:09.332Z,101764.41
2018-11-02T22:26:38.648Z,101770.54
2018-11-02T22:29:10.203Z,101775.31
2018-11-02T22:31:39.247Z,101774.78
2018-11-02T22:34:08.471Z,101773.31
2018-11-02T22:36:37.419Z,101768.23
2018-11-02T22:39:08.638Z,101775.31
2018-11-02T22:41:37.654Z,101773.50
2018-11-02T22:44:06.647Z,101766.53
2018-11-02T22:46:35.646Z,101761.48
2018-11-02T22:49:04.611Z,101765.43
2018-11-02T22:51:33.490Z,101770.18
2018-11-02T22:54:04.954Z,101777.12
2018-11-02T22:56:33.876Z,101764.35
2018-11-02T22:59:02.783Z,101765.43
2018-11-02T23:01:32.164Z,101761.33
2018-11-02T23:04:03.654Z,101768.80
2018-11-02T23:06:32.527Z,101774.00
2018-11-02T23:09:07.975Z,101775.44
2018-11-02T23:11:37.715Z,101771.64
2018-11-02T23:14:07.972Z,101770.75
2018-11-02T23:16:38.232Z,101769.46
2018-11-02T23:19:08.512Z,101766.14
2018-11-02T23:21:38.308Z,101763.97
2018-11-02T23:24:07.964Z,101762.41
2018-11-02T23:26:38.527Z,101756.97
2018-11-02T23:29:09.539Z,101758.34
2018-11-02T23:31:39.275Z,101764.92
2018-11-02T23:34:23.887Z,101767.25
2018-11-02T23:36:53.862Z,101771.13
2018-11-02T23:39:23.582Z,101766.35
2018-11-02T23:41:52.562Z,101764.17
2018-11-02T23:44:21.820Z,101772.56
2018-11-02T23:46:50.658Z,101764.26
2018-11-02T23:49:19.609Z,101761.23
2018-11-02T23:51:48.592Z,101755.05
2018-11-02T23:54:17.463Z,101755.17
2018-11-02T23:56:46.471Z,101751.08
2018-11-02T23:59:15.617Z,101751.62
